createdAt,value
2018-11-21T00:00:22.470Z,26.30
2018-11-21T00:01:22.459Z,27.50
2018-11-21T00:02:22.413Z,29.20
2018-11-21T00:03:22.397Z,29.30
2018-11-21T00:04:22.360Z,28.60
2018-11-21T00:05:22.340Z,27.60
2018-11-21T00:06:22.306Z,27.40
2018-11-21T00:07:22.280Z,28.80
2018-11-21T00:08:22.248Z,28.40
2018-11-21T00:09:22.222Z,23.60
2018-11-21T00:10:22.193Z,27.20
2018-11-21T00:11:22.176Z,27.30
2018-11-21T00:12:22.141Z,28.20
2018-11-21T00:13:22.119Z,26.10
2018-11-21T00:14:22.083Z,30.30
2018-11-21T00:15:22.076Z,29.90
2018-11-21T00:16:22.035Z,27.70
2018-11-21T00:17:22.001Z,25.90
2018-11-21T00:18:21.975Z,28.30
2018-11-21T00:19:21.979Z,28.90
2018-11-21T00:20:21.921Z,27.90
2018-11-21T00:21:21.897Z,27.50
2018-11-21T00:22:21.863Z,24.00
2018-11-21T00:23:21.846Z,29.20
2018-11-21T00:24:21.811Z,25.10
2018-11-21T00:25:21.790Z,28.70
2018-11-21T00:26:21.755Z,25.20
2018-11-21T00:27:21.729Z,28.50
2018-11-21T00:28:21.698Z,28.00
2018-11-21T00:29:21.669Z,27.90
2018-11-21T00:30:21.652Z,29.80
2018-11-21T00:31:21.618Z,26.90
2018-11-21T00:32:21.591Z,27.40
2018-11-21T00:33:21.561Z,28.60
2018-11-21T00:34:21.532Z,27.50
2018-11-21T00:35:21.507Z,28.10
2018-11-21T00:36:21.478Z,26.80
2018-11-21T00:37:21.452Z,27.50
2018-11-21T00:38:21.430Z,28.60
2018-11-21T00:39:21.399Z,28.60
2018-11-21T00:40:21.366Z,28.50
2018-11-21T00:41:21.344Z,28.50
2018-11-21T00:42:21.312Z,28.20
2018-11-21T00:43:21.286Z,26.30
2018-11-21T00:44:21.265Z,28.10
2018-11-21T00:45:21.230Z,28.00
2018-11-21T00:46:21.216Z,28.30
2018-11-21T00:47:21.175Z,29.60
2018-11-21T00:48:21.146Z,26.10
2018-11-21T00:49:21.124Z,25.60
2018-11-21T00:50:21.096Z,27.20
2018-11-21T00:51:21.067Z,28.60
2018-11-21T00:52:21.058Z,26.10
2018-11-21T00:53:21.010Z,26.80
2018-11-21T00:54:20.988Z,28.30
2018-11-21T00:55:20.953Z,22.10
2018-11-21T00:56:20.930Z,27.60
2018-11-21T00:57:20.900Z,28.50
2018-11-21T00:58:20.873Z,27.00
2018-11-21T00:59:20.845Z,27.90
2018-11-21T01:00:20.815Z,29.90
2018-11-21T01:01:20.794Z,28.20
2018-11-21T01:02:20.759Z,27.80
2018-11-21T01:03:20.733Z,29.10
2018-11-21T01:04:20.707Z,26.10
2018-11-21T01:05:20.675Z,26.90
2018-11-21T01:06:20.698Z,29.20
2018-11-21T01:07:20.621Z,27.20
2018-11-21T01:08:20.592Z,28.10
2018-11-21T01:09:20.565Z,27.20
2018-11-21T01:10:20.543Z,29.80
2018-11-21T01:11:20.510Z,29.20
2018-11-21T01:12:20.481Z,27.70
2018-11-21T01:13:20.459Z,27.00
2018-11-21T01:14:20.427Z,29.70
2018-11-21T01:15:20.402Z,29.80
2018-11-21T01:16:20.370Z,29.00
2018-11-21T01:17:20.344Z,29.20
2018-11-21T01:18:20.316Z,27.80
2018-11-21T01:19:20.294Z,26.00
2018-11-21T01:20:20.260Z,26.90
2018-11-21T01:21:20.233Z,29.20
2018-11-21T01:22:20.207Z,28.70
2018-11-21T01:23:20.180Z,29.00
2018-11-21T01:24:20.160Z,28.30
2018-11-21T01:25:20.123Z,24.80
2018-11-21T01:26:20.096Z,28.00
2018-11-21T01:27:20.077Z,27.10
2018-11-21T01:28:20.039Z,28.30
2018-11-21T01:29:20.020Z,27.80
2018-11-21T01:30:19.983Z,28.10
2018-11-21T01:31:19.955Z,23.70
2018-11-21T01:32:19.928Z,25.80
2018-11-21T01:33:19.903Z,29.10
2018-11-21T01:34:19.873Z,26.90
2018-11-21T01:35:19.845Z,25.90
2018-11-21T01:36:19.832Z,28.80
2018-11-21T01:37:19.790Z,26.60
2018-11-21T01:38:19.766Z,25.20
2018-11-21T01:39:19.733Z,29.50
2018-11-21T01:40:19.714Z,29.10
2018-11-21T01:41:19.686Z,27.60
2018-11-21T01:42:19.651Z,25.90
2018-11-21T01:43:19.623Z,26.40
2018-11-21T01:44:19.600Z,27.30
2018-11-21T01:45:19.567Z,29.40
2018-11-21T01:46:19.540Z,27.60
2018-11-21T01:47:19.510Z,28.40
2018-11-21T01:48:19.537Z,27.70
2018-11-21T01:49:19.455Z,24.80
2018-11-21T01:50:19.427Z,28.90
2018-11-21T01:51:19.404Z,30.00
2018-11-21T01:52:19.371Z,27.70
2018-11-21T01:53:19.344Z,21.90
2018-11-21T01:54:19.317Z,27.20
2018-11-21T01:55:19.290Z,28.00
2018-11-21T01:56:19.260Z,27.30
2018-11-21T01:57:19.249Z,28.10
2018-11-21T01:58:19.214Z,28.40
2018-11-21T01:59:19.179Z,25.00
2018-11-21T02:00:19.150Z,25.70
2018-11-21T02:01:19.122Z,28.20
2018-11-21T02:02:19.094Z,26.60
2018-11-21T02:03:19.067Z,27.90
2018-11-21T02:04:19.038Z,29.00
2018-11-21T02:05:19.010Z,27.50
2018-11-21T02:06:18.985Z,24.70
2018-11-21T02:07:18.955Z,28.00
2018-11-21T02:08:18.927Z,27.20
2018-11-21T02:09:18.900Z,27.60
2018-11-21T02:10:18.873Z,27.20
2018-11-21T02:11:18.857Z,25.80
2018-11-21T02:12:18.818Z,27.20
2018-11-21T02:13:18.791Z,27.30
2018-11-21T02:14:18.762Z,27.60
2018-11-21T02:15:18.733Z,27.30
2018-11-21T02:16:18.717Z,27.10
2018-11-21T02:17:18.681Z,27.40
2018-11-21T02:18:18.654Z,28.20
2018-11-21T02:19:18.625Z,25.70
2018-11-21T02:20:18.596Z,27.10
2018-11-21T02:21:18.574Z,28.00
2018-11-21T02:22:18.541Z,27.50
2018-11-21T02:23:18.511Z,28.40
2018-11-21T02:24:18.485Z,28.00
2018-11-21T02:25:18.456Z,26.40
2018-11-21T02:26:18.429Z,27.10
2018-11-21T02:27:18.453Z,26.60
2018-11-21T02:28:18.376Z,26.90
2018-11-21T02:29:18.346Z,27.90
2018-11-21T02:30:18.319Z,28.30
2018-11-21T02:31:18.299Z,27.10
2018-11-21T02:32:18.262Z,26.10
2018-11-21T02:33:18.235Z,27.50
2018-11-21T02:34:18.209Z,24.90
2018-11-21T02:35:18.182Z,18.10
2018-11-21T02:36:18.151Z,24.50
2018-11-21T02:37:18.125Z,26.00
2018-11-21T02:38:18.098Z,26.30
2018-11-21T02:39:18.073Z,27.00
2018-11-21T02:40:18.041Z,25.50
2018-11-21T02:41:18.015Z,23.50
2018-11-21T02:42:17.986Z,26.80
2018-11-21T02:43:17.958Z,25.60
2018-11-21T02:44:17.933Z,21.90
2018-11-21T02:45:17.913Z,23.30
2018-11-21T02:46:17.878Z,27.00
2018-11-21T02:47:17.848Z,26.10
2018-11-21T02:48:17.821Z,24.60
2018-11-21T02:49:17.804Z,24.30
2018-11-21T02:50:17.766Z,22.50
2018-11-21T02:51:17.737Z,22.10
2018-11-21T02:52:17.715Z,22.60
2018-11-21T02:53:17.683Z,24.60
2018-11-21T02:54:17.654Z,25.00
2018-11-21T02:55:17.628Z,24.40
2018-11-21T02:56:17.599Z,22.50
2018-11-21T02:57:17.570Z,25.10
2018-11-21T02:58:17.558Z,22.80
2018-11-21T02:59:17.520Z,24.80
2018-11-21T03:00:17.496Z,21.10
2018-11-21T03:01:17.477Z,24.10
2018-11-21T03:02:17.434Z,25.30
2018-11-21T03:03:17.406Z,25.30
2018-11-21T03:04:17.378Z,24.80
2018-11-21T03:05:17.350Z,22.30
2018-11-21T03:06:17.432Z,24.30
2018-11-21T03:07:17.297Z,22.50
2018-11-21T03:08:17.268Z,18.70
2018-11-21T03:09:17.240Z,24.80
2018-11-21T03:10:17.213Z,23.50
2018-11-21T03:11:17.190Z,24.30
2018-11-21T03:12:17.156Z,24.20
2018-11-21T03:13:17.128Z,25.20
2018-11-21T03:14:17.102Z,21.70
2018-11-21T03:15:17.074Z,21.60
2018-11-21T03:16:17.046Z,23.10
2018-11-21T03:17:17.022Z,26.10
2018-11-21T03:18:16.991Z,21.00
2018-11-21T03:19:16.965Z,23.30
2018-11-21T03:20:16.935Z,19.30
2018-11-21T03:21:16.907Z,20.80
2018-11-21T03:22:16.881Z,23.80
2018-11-21T03:23:16.852Z,24.00
2018-11-21T03:24:16.824Z,25.30
2018-11-21T03:25:16.797Z,20.40
2018-11-21T03:26:16.769Z,25.30
2018-11-21T03:27:16.749Z,25.30
2018-11-21T03:28:16.714Z,26.10
2018-11-21T03:29:16.687Z,24.20
2018-11-21T03:30:16.663Z,26.80
2018-11-21T03:31:16.631Z,25.60
2018-11-21T03:32:16.611Z,25.60
2018-11-21T03:33:16.577Z,21.70
2018-11-21T03:34:16.548Z,24.10
2018-11-21T03:35:16.522Z,25.20
2018-11-21T03:36:16.494Z,26.20
2018-11-21T03:37:16.467Z,23.90
2018-11-21T03:38:16.441Z,25.10
2018-11-21T03:39:16.411Z,20.30
2018-11-21T03:40:16.386Z,25.40
2018-11-21T03:41:16.355Z,25.40
2018-11-21T03:42:16.333Z,27.50
2018-11-21T03:43:16.303Z,26.80
2018-11-21T03:44:16.273Z,27.30
2018-11-21T03:45:16.255Z,26.00
2018-11-21T03:46:16.219Z,26.20
2018-11-21T03:47:16.190Z,24.30
2018-11-21T03:48:16.186Z,22.10
2018-11-21T03:49:16.142Z,26.10
2018-11-21T03:50:16.111Z,23.00
2018-11-21T03:51:16.079Z,24.70
2018-11-21T03:52:16.061Z,20.60
2018-11-21T03:53:16.032Z,22.50
2018-11-21T03:54:16.001Z,25.80
2018-11-21T03:55:15.970Z,27.20
2018-11-21T03:56:15.941Z,20.70
2018-11-21T03:57:15.913Z,22.50
2018-11-21T03:58:15.886Z,27.10
2018-11-21T03:59:15.860Z,25.70
2018-11-21T04:00:15.830Z,23.50
2018-11-21T04:01:15.804Z,25.90
2018-11-21T04:02:15.778Z,27.10
2018-11-21T04:03:15.747Z,26.50
2018-11-21T04:04:15.721Z,26.20
2018-11-21T04:05:15.692Z,26.40
2018-11-21T04:06:15.666Z,27.50
2018-11-21T04:07:15.638Z,26.80
2018-11-21T04:08:15.609Z,26.80
2018-11-21T04:09:15.585Z,24.50
2018-11-21T04:10:15.553Z,24.90
2018-11-21T04:11:15.525Z,25.80
2018-11-21T04:12:15.498Z,25.60
2018-11-21T04:13:15.471Z,27.70
2018-11-21T04:14:15.442Z,27.50
2018-11-21T04:15:15.417Z,21.10
2018-11-21T04:16:15.438Z,26.00
2018-11-21T04:17:15.359Z,22.40
2018-11-21T04:18:15.334Z,27.30
2018-11-21T04:19:15.305Z,25.80
2018-11-21T04:20:15.283Z,26.70
2018-11-21T04:21:15.248Z,25.60
2018-11-21T04:22:15.221Z,25.90
2018-11-21T04:23:15.201Z,24.10
2018-11-21T04:24:15.166Z,24.80
2018-11-21T04:25:15.139Z,24.30
2018-11-21T04:26:15.110Z,23.70
2018-11-21T04:27:15.083Z,25.10
2018-11-21T04:28:15.055Z,23.40
2018-11-21T04:29:15.031Z,25.80
2018-11-21T04:30:14.998Z,27.70
2018-11-21T04:31:14.979Z,28.10
2018-11-21T04:32:14.943Z,25.20
2018-11-21T04:33:14.924Z,23.40
2018-11-21T04:34:14.889Z,26.20
2018-11-21T04:35:14.860Z,25.20
2018-11-21T04:36:14.832Z,27.40
2018-11-21T04:37:14.806Z,26.00
2018-11-21T04:38:14.782Z,27.20
2018-11-21T04:39:14.751Z,26.80
2018-11-21T04:40:14.721Z,27.40
2018-11-21T04:41:14.694Z,28.10
2018-11-21T04:42:14.667Z,27.00
2018-11-21T04:43:14.640Z,27.50
2018-11-21T04:44:14.610Z,27.60
2018-11-21T04:45:14.589Z,27.60
2018-11-21T04:46:14.555Z,26.00
2018-11-21T04:47:14.529Z,22.70
2018-11-21T04:48:14.501Z,21.10
2018-11-21T04:49:14.474Z,25.80
2018-11-21T04:50:14.445Z,28.30
2018-11-21T04:51:14.419Z,27.10
2018-11-21T04:52:14.389Z,26.00
2018-11-21T04:53:14.367Z,22.50
2018-11-21T04:54:14.335Z,26.00
2018-11-21T04:55:14.309Z,22.10
2018-11-21T04:56:14.282Z,26.80
2018-11-21T04:57:14.251Z,27.00
2018-11-21T04:58:14.282Z,25.60
2018-11-21T04:59:14.199Z,24.60
2018-11-21T05:00:14.167Z,26.00
2018-11-21T05:01:14.166Z,28.10
2018-11-21T05:02:14.122Z,27.70
2018-11-21T05:03:14.096Z,27.20
2018-11-21T05:04:14.061Z,22.10
2018-11-21T05:05:14.030Z,26.00
2018-11-21T05:06:14.009Z,27.50
2018-11-21T05:07:13.980Z,26.90
2018-11-21T05:08:13.951Z,27.10
2018-11-21T05:09:13.922Z,28.40
2018-11-21T05:10:13.905Z,24.90
2018-11-21T05:11:13.868Z,27.20
2018-11-21T05:12:13.839Z,24.70
2018-11-21T05:13:13.813Z,22.00
2018-11-21T05:14:13.798Z,26.20
2018-11-21T05:15:13.755Z,24.70
2018-11-21T05:16:13.727Z,22.20
2018-11-21T05:17:13.710Z,26.10
2018-11-21T05:18:13.681Z,25.40
2018-11-21T05:19:13.647Z,24.10
2018-11-21T05:20:13.619Z,26.70
2018-11-21T05:21:13.594Z,23.20
2018-11-21T05:22:13.564Z,26.80
2018-11-21T05:23:13.546Z,25.80
2018-11-21T05:24:13.508Z,27.00
2018-11-21T05:25:13.484Z,26.60
2018-11-21T05:26:13.453Z,25.40
2018-11-21T05:27:13.431Z,26.90
2018-11-21T05:28:13.396Z,24.50
2018-11-21T05:29:13.372Z,22.90
2018-11-21T05:30:13.359Z,26.00
2018-11-21T05:31:13.318Z,27.00
2018-11-21T05:32:13.288Z,26.20
2018-11-21T05:33:13.259Z,28.10
2018-11-21T05:34:13.232Z,27.30
2018-11-21T05:35:13.205Z,27.20
2018-11-21T05:36:13.176Z,25.00
2018-11-21T05:37:13.148Z,25.90
2018-11-21T05:38:13.127Z,24.80
2018-11-21T05:39:13.093Z,26.40
2018-11-21T05:40:13.066Z,27.10
2018-11-21T05:41:13.039Z,25.60
2018-11-21T05:42:13.011Z,26.90
2018-11-21T05:43:12.988Z,28.00
2018-11-21T05:44:12.956Z,27.60
2018-11-21T05:45:12.929Z,27.20
2018-11-21T05:46:12.902Z,28.40
2018-11-21T05:47:12.874Z,27.10
2018-11-21T05:48:12.845Z,25.90
2018-11-21T05:49:12.819Z,25.90
2018-11-21T05:50:12.796Z,25.40
2018-11-21T05:51:12.763Z,24.20
2018-11-21T05:52:12.736Z,24.10
2018-11-21T05:53:12.707Z,24.90
2018-11-21T05:54:12.686Z,26.40
2018-11-21T05:55:12.662Z,28.50
2018-11-21T05:56:12.624Z,27.60
2018-11-21T05:57:12.597Z,24.40
2018-11-21T05:58:12.578Z,28.30
2018-11-21T05:59:12.605Z,25.40
2018-11-21T06:00:12.514Z,26.10
2018-11-21T06:01:12.487Z,25.90
2018-11-21T06:02:12.510Z,26.20
2018-11-21T06:03:12.436Z,26.30
2018-11-21T06:04:12.410Z,24.10
2018-11-21T06:05:12.377Z,19.80
2018-11-21T06:06:12.347Z,25.10
2018-11-21T06:07:12.320Z,27.50
2018-11-21T06:08:12.293Z,27.20
2018-11-21T06:09:12.272Z,26.90
2018-11-21T06:10:12.239Z,26.90
2018-11-21T06:11:12.210Z,25.20
2018-11-21T06:12:12.191Z,27.30
2018-11-21T06:13:12.156Z,27.00
2018-11-21T06:14:12.157Z,28.00
2018-11-21T06:15:12.102Z,24.60
2018-11-21T06:16:12.073Z,22.70
2018-11-21T06:17:12.044Z,26.50
2018-11-21T06:18:12.016Z,24.40
2018-11-21T06:19:11.988Z,21.90
2018-11-21T06:20:11.962Z,24.50
2018-11-21T06:21:11.932Z,27.40
2018-11-21T06:22:11.904Z,26.70
2018-11-21T06:23:11.877Z,25.70
2018-11-21T06:24:11.858Z,27.00
2018-11-21T06:25:11.829Z,28.80
2018-11-21T06:26:11.795Z,27.90
2018-11-21T06:27:11.767Z,27.90
2018-11-21T06:28:11.739Z,28.10
2018-11-21T06:29:11.711Z,28.00
2018-11-21T06:30:11.682Z,27.00
2018-11-21T06:31:11.657Z,27.00
2018-11-21T06:32:11.639Z,25.30
2018-11-21T06:33:11.602Z,22.90
2018-11-21T06:34:11.578Z,27.30
2018-11-21T06:35:11.547Z,27.40
2018-11-21T06:36:11.515Z,28.20
2018-11-21T06:37:11.496Z,25.40
2018-11-21T06:38:11.476Z,25.90
2018-11-21T06:39:11.452Z,27.10
2018-11-21T06:40:11.408Z,26.60
2018-11-21T06:41:11.379Z,27.40
2018-11-21T06:42:11.352Z,27.00
2018-11-21T06:43:11.324Z,28.10
2018-11-21T06:44:11.303Z,28.90
2018-11-21T06:45:11.267Z,28.90
2018-11-21T06:46:11.241Z,28.90
2018-11-21T06:47:11.215Z,27.70
2018-11-21T06:48:11.189Z,27.80
2018-11-21T06:49:11.165Z,27.80
2018-11-21T06:50:11.134Z,26.90
2018-11-21T06:51:11.102Z,27.40
2018-11-21T06:52:11.073Z,29.10
2018-11-21T06:53:11.046Z,28.60
2018-11-21T06:54:11.024Z,27.80
2018-11-21T06:55:10.992Z,23.70
2018-11-21T06:56:10.964Z,27.60
2018-11-21T06:57:10.938Z,26.00
2018-11-21T06:58:10.909Z,28.20
2018-11-21T06:59:10.883Z,28.90
2018-11-21T07:00:10.858Z,27.50
2018-11-21T07:01:10.824Z,25.30
2018-11-21T07:02:10.822Z,28.40
2018-11-21T07:03:10.772Z,28.80
2018-11-21T07:04:10.745Z,29.00
2018-11-21T07:05:10.716Z,26.40
2018-11-21T07:06:10.691Z,25.10
2018-11-21T07:07:10.659Z,27.20
2018-11-21T07:08:10.631Z,28.50
2018-11-21T07:09:10.611Z,27.40
2018-11-21T07:10:10.589Z,27.50
2018-11-21T07:11:10.550Z,28.70
2018-11-21T07:12:10.522Z,22.90
2018-11-21T07:13:11.211Z,29.40
2018-11-21T07:14:10.466Z,26.50
2018-11-21T07:15:10.440Z,26.20
2018-11-21T07:16:10.420Z,25.20
2018-11-21T07:17:10.383Z,23.60
2018-11-21T07:18:10.356Z,26.20
2018-11-21T07:19:10.327Z,21.00
2018-11-21T07:20:10.304Z,23.60
2018-11-21T07:21:10.287Z,21.40
2018-11-21T07:22:10.253Z,25.00
2018-11-21T07:23:10.270Z,25.90
2018-11-21T07:24:10.189Z,21.50
2018-11-21T07:25:10.161Z,25.00
2018-11-21T07:26:10.134Z,26.10
2018-11-21T07:27:10.106Z,25.20
2018-11-21T07:28:13.151Z,20.90
2018-11-21T07:29:10.052Z,25.00
2018-11-21T07:30:10.024Z,25.90
2018-11-21T07:31:09.995Z,22.10
2018-11-21T07:32:09.966Z,24.50
2018-11-21T07:33:09.941Z,27.00
2018-11-21T07:34:09.924Z,24.00
2018-11-21T07:35:09.892Z,27.90
2018-11-21T07:36:09.858Z,28.20
2018-11-21T07:37:09.831Z,27.10
2018-11-21T07:38:09.803Z,29.00
2018-11-21T07:39:09.773Z,24.90
2018-11-21T07:40:09.748Z,27.50
2018-11-21T07:41:09.717Z,24.00
2018-11-21T07:42:09.690Z,26.10
2018-11-21T07:43:09.669Z,26.00
2018-11-21T07:44:09.645Z,27.10
2018-11-21T07:45:09.607Z,28.50
2018-11-21T07:46:09.579Z,26.70
2018-11-21T07:47:09.550Z,30.60
2018-11-21T07:48:09.526Z,26.80
2018-11-21T07:49:09.497Z,25.90
2018-11-21T07:50:09.469Z,28.80
2018-11-21T07:51:09.442Z,26.10
2018-11-21T07:52:09.420Z,27.30
2018-11-21T07:53:09.386Z,19.80
2018-11-21T07:54:09.360Z,25.30
2018-11-21T07:55:09.337Z,24.90
2018-11-21T07:56:09.317Z,26.90
2018-11-21T07:57:09.281Z,26.90
2018-11-21T07:58:09.250Z,26.50
2018-11-21T07:59:09.222Z,27.00
2018-11-21T08:00:09.203Z,20.10
2018-11-21T08:01:09.166Z,27.10
2018-11-21T08:02:09.144Z,25.90
2018-11-21T08:03:09.113Z,24.10
2018-11-21T08:04:09.091Z,24.10
2018-11-21T08:05:09.057Z,24.80
2018-11-21T08:06:09.030Z,27.80
2018-11-21T08:07:09.005Z,25.70
2018-11-21T08:08:08.984Z,22.10
2018-11-21T08:09:08.948Z,26.60
2018-11-21T08:10:08.928Z,27.40
2018-11-21T08:11:08.896Z,27.10
2018-11-21T08:12:08.873Z,27.20
2018-11-21T08:13:08.841Z,24.90
2018-11-21T08:14:08.810Z,25.60
2018-11-21T08:15:08.783Z,20.60
2018-11-21T08:16:08.755Z,26.90
2018-11-21T08:17:08.728Z,20.20
2018-11-21T08:18:08.700Z,20.90
2018-11-21T08:19:08.675Z,24.40
2018-11-21T08:20:08.644Z,25.50
2018-11-21T08:21:08.619Z,26.90
2018-11-21T08:22:08.592Z,24.60
2018-11-21T08:23:08.564Z,24.00
2018-11-21T08:24:08.547Z,22.70
2018-11-21T08:25:08.518Z,24.60
2018-11-21T08:26:08.484Z,19.90
2018-11-21T08:27:08.457Z,24.30
2018-11-21T08:28:08.434Z,21.80
2018-11-21T08:29:08.401Z,22.60
2018-11-21T08:30:08.375Z,25.10
2018-11-21T08:31:08.355Z,22.00
2018-11-21T08:32:08.320Z,23.20
2018-11-21T08:33:08.292Z,23.00
2018-11-21T08:34:08.266Z,26.10
2018-11-21T08:35:08.245Z,23.80
2018-11-21T08:36:08.210Z,25.30
2018-11-21T08:37:08.192Z,24.50
2018-11-21T08:38:08.169Z,24.40
2018-11-21T08:39:08.145Z,24.80
2018-11-21T08:40:08.101Z,26.80
2018-11-21T08:41:08.138Z,25.50
2018-11-21T08:42:08.048Z,26.70
2018-11-21T08:43:08.021Z,27.00
2018-11-21T08:44:07.995Z,27.70
2018-11-21T08:45:07.968Z,17.30
2018-11-21T08:46:07.941Z,21.70
2018-11-21T08:47:07.915Z,25.30
2018-11-21T08:48:07.891Z,21.40
2018-11-21T08:49:07.859Z,17.90
2018-11-21T08:50:07.832Z,21.90
2018-11-21T08:51:07.806Z,23.50
2018-11-21T08:52:07.777Z,24.00
2018-11-21T08:53:07.758Z,23.90
2018-11-21T08:54:07.729Z,25.40
2018-11-21T08:55:09.028Z,24.20
2018-11-21T08:56:07.671Z,22.60
2018-11-21T08:57:07.644Z,24.70
2018-11-21T08:58:07.617Z,24.10
2018-11-21T08:59:07.590Z,19.10
2018-11-21T09:00:07.566Z,24.20
2018-11-21T09:01:07.544Z,23.20
2018-11-21T09:02:07.509Z,19.70
2018-11-21T09:03:07.490Z,22.80
2018-11-21T09:04:07.455Z,18.90
2018-11-21T09:05:07.432Z,18.30
2018-11-21T09:06:07.411Z,15.80
2018-11-21T09:07:07.381Z,21.50
2018-11-21T09:08:07.355Z,24.60
2018-11-21T09:09:07.329Z,23.70
2018-11-21T09:10:07.297Z,21.50
2018-11-21T09:11:07.269Z,23.50
2018-11-21T09:12:08.780Z,24.20
2018-11-21T09:13:07.220Z,23.60
2018-11-21T09:14:07.192Z,23.90
2018-11-21T09:15:07.163Z,18.20
2018-11-21T09:16:07.135Z,19.50
2018-11-21T09:17:07.108Z,21.60
2018-11-21T09:18:07.084Z,19.80
2018-11-21T09:19:07.066Z,23.40
2018-11-21T09:20:07.062Z,23.70
2018-11-21T09:21:07.005Z,22.70
2018-11-21T09:22:06.976Z,22.40
2018-11-21T09:23:06.950Z,22.50
2018-11-21T09:24:06.932Z,24.30
2018-11-21T09:25:06.904Z,24.30
2018-11-21T09:26:06.891Z,20.30
2018-11-21T09:27:06.860Z,21.50
2018-11-21T09:28:06.830Z,21.50
2018-11-21T09:29:06.795Z,22.90
2018-11-21T09:30:06.765Z,24.70
2018-11-21T09:31:06.751Z,25.20
2018-11-21T09:32:06.715Z,23.30
2018-11-21T09:33:06.694Z,25.00
2018-11-21T09:34:06.674Z,24.40
2018-11-21T09:35:06.646Z,25.00
2018-11-21T09:36:06.608Z,19.20
2018-11-21T09:37:06.585Z,24.70
2018-11-21T09:38:06.557Z,24.50
2018-11-21T09:39:06.531Z,20.90
2018-11-21T09:40:06.511Z,23.20
2018-11-21T09:41:06.479Z,20.80
2018-11-21T09:42:06.462Z,17.50
2018-11-21T09:43:06.438Z,20.00
2018-11-21T09:44:06.400Z,19.90
2018-11-21T09:45:06.448Z,20.70
2018-11-21T09:46:06.352Z,24.80
2018-11-21T09:47:06.323Z,23.30
2018-11-21T09:48:06.298Z,23.70
2018-11-21T09:49:06.280Z,22.40
2018-11-21T09:50:06.279Z,24.60
2018-11-21T09:51:06.229Z,18.40
2018-11-21T09:52:06.194Z,24.50
2018-11-21T09:53:06.177Z,22.30
2018-11-21T09:54:06.144Z,21.00
2018-11-21T09:55:06.119Z,21.40
2018-11-21T09:56:06.097Z,21.60
2018-11-21T09:57:06.067Z,24.80
2018-11-21T09:58:06.054Z,25.50
2018-11-21T09:59:06.070Z,25.70
2018-11-21T10:00:05.988Z,23.60
2018-11-21T10:01:05.969Z,23.30
2018-11-21T10:02:05.946Z,23.40
2018-11-21T10:03:05.931Z,21.60
2018-11-21T10:04:05.898Z,22.70
2018-11-21T10:05:05.869Z,20.90
2018-11-21T10:06:05.835Z,20.90
2018-11-21T10:07:05.814Z,19.90
2018-11-21T10:08:05.798Z,21.80
2018-11-21T10:09:05.775Z,18.90
2018-11-21T10:10:05.736Z,22.10
2018-11-21T10:11:05.718Z,22.80
2018-11-21T10:12:05.686Z,23.40
2018-11-21T10:13:05.659Z,22.90
2018-11-21T10:14:05.657Z,21.60
2018-11-21T10:15:05.614Z,23.20
2018-11-21T10:16:05.585Z,22.90
2018-11-21T10:17:05.561Z,22.70
2018-11-21T10:18:05.535Z,22.90
2018-11-21T10:19:05.505Z,22.20
2018-11-21T10:20:05.479Z,22.80
2018-11-21T10:21:05.452Z,25.30
2018-11-21T10:22:05.438Z,23.40
2018-11-21T10:23:05.412Z,24.40
2018-11-21T10:24:05.380Z,18.80
2018-11-21T10:25:05.350Z,22.10
2018-11-21T10:26:05.330Z,17.70
2018-11-21T10:27:05.307Z,18.80
2018-11-21T10:28:05.277Z,22.10
2018-11-21T10:29:05.248Z,23.50
2018-11-21T10:30:05.230Z,19.80
2018-11-21T10:31:05.198Z,22.90
2018-11-21T10:32:05.186Z,24.30
2018-11-21T10:33:05.148Z,24.90
2018-11-21T10:34:05.121Z,23.10
2018-11-21T10:35:05.103Z,20.70
2018-11-21T10:36:05.078Z,18.90
2018-11-21T10:37:05.050Z,22.50
2018-11-21T10:38:05.019Z,23.80
2018-11-21T10:39:04.993Z,23.60
2018-11-21T10:40:04.968Z,23.90
2018-11-21T10:41:04.942Z,21.20
2018-11-21T10:42:04.917Z,23.80
2018-11-21T10:43:04.908Z,21.40
2018-11-21T10:44:04.873Z,23.70
2018-11-21T10:45:04.847Z,21.90
2018-11-21T10:46:04.927Z,20.80
2018-11-21T10:47:04.794Z,24.30
2018-11-21T10:48:04.765Z,22.40
2018-11-21T10:49:04.741Z,21.60
2018-11-21T10:50:04.713Z,23.20
2018-11-21T10:51:04.699Z,22.90
2018-11-21T10:52:04.663Z,22.00
2018-11-21T10:53:04.640Z,23.30
2018-11-21T10:54:04.617Z,21.30
2018-11-21T10:55:04.590Z,17.90
2018-11-21T10:56:04.561Z,22.20
2018-11-21T10:57:04.539Z,20.80
2018-11-21T10:58:04.519Z,24.10
2018-11-21T10:59:04.486Z,24.50
2018-11-21T11:00:04.479Z,24.60
2018-11-21T11:01:04.436Z,24.40
2018-11-21T11:02:04.412Z,22.40
2018-11-21T11:03:04.387Z,23.30
2018-11-21T11:04:04.368Z,24.70
2018-11-21T11:05:04.336Z,25.50
2018-11-21T11:06:04.313Z,24.80
2018-11-21T11:07:04.295Z,19.10
2018-11-21T11:08:04.259Z,23.30
2018-11-21T11:09:04.245Z,23.10
2018-11-21T11:10:04.208Z,22.70
2018-11-21T11:11:04.197Z,22.40
2018-11-21T11:12:04.163Z,23.60
2018-11-21T11:13:04.143Z,20.10
2018-11-21T11:14:04.118Z,22.60
2018-11-21T11:15:04.089Z,22.50
2018-11-21T11:16:04.060Z,22.50
2018-11-21T11:17:04.040Z,21.10
2018-11-21T11:18:04.011Z,23.00
2018-11-21T11:19:03.997Z,22.50
2018-11-21T11:20:04.220Z,22.00
2018-11-21T11:21:03.938Z,20.90
2018-11-21T11:22:03.913Z,15.30
2018-11-21T11:23:03.888Z,12.80
2018-11-21T11:24:03.866Z,17.00
2018-11-21T11:25:03.840Z,18.20
2018-11-21T11:26:03.814Z,15.20
2018-11-21T11:27:03.789Z,16.50
2018-11-21T11:28:03.763Z,19.20
2018-11-21T11:29:03.740Z,20.00
2018-11-21T11:30:03.715Z,19.60
2018-11-21T11:31:03.689Z,18.10
2018-11-21T11:32:03.662Z,16.20
2018-11-21T11:33:03.638Z,16.60
2018-11-21T11:34:03.619Z,17.80
2018-11-21T11:35:03.590Z,18.20
2018-11-21T11:36:03.565Z,17.80
2018-11-21T11:37:03.538Z,16.60
2018-11-21T11:38:03.518Z,15.50
2018-11-21T11:39:03.489Z,17.40
2018-11-21T11:40:03.465Z,12.80
2018-11-21T11:41:03.439Z,16.10
2018-11-21T11:42:03.419Z,17.50
2018-11-21T11:43:03.395Z,18.20
2018-11-21T11:44:03.408Z,17.40
2018-11-21T11:45:03.347Z,18.80
2018-11-21T11:46:03.315Z,12.20
2018-11-21T11:47:03.303Z,19.10
2018-11-21T11:48:03.265Z,14.40
2018-11-21T11:49:03.241Z,14.80
2018-11-21T11:50:03.215Z,16.00
2018-11-21T11:51:03.190Z,17.80
2018-11-21T11:52:03.165Z,20.00
2018-11-21T11:53:03.137Z,17.70
2018-11-21T11:54:03.120Z,17.80
2018-11-21T11:55:03.094Z,18.50
2018-11-21T11:56:03.061Z,17.80
2018-11-21T11:57:03.041Z,19.90
2018-11-21T11:58:03.037Z,17.40
2018-11-21T11:59:02.997Z,18.10
2018-11-21T12:00:02.961Z,15.60
2018-11-21T12:01:02.937Z,17.90
2018-11-21T12:02:02.913Z,18.80
2018-11-21T12:03:02.900Z,16.60
2018-11-21T12:04:02.863Z,14.70
2018-11-21T12:05:02.839Z,18.30
2018-11-21T12:06:02.815Z,17.00
2018-11-21T12:07:02.790Z,18.10
2018-11-21T12:08:02.762Z,17.80
2018-11-21T12:09:02.746Z,17.50
2018-11-21T12:10:02.719Z,14.80
2018-11-21T12:11:02.686Z,14.60
2018-11-21T12:12:04.968Z,18.40
2018-11-21T12:13:02.637Z,19.60
2018-11-21T12:14:02.613Z,18.30
2018-11-21T12:15:02.586Z,18.10
2018-11-21T12:16:02.560Z,15.30
2018-11-21T12:17:02.535Z,13.90
2018-11-21T12:18:02.557Z,17.50
2018-11-21T12:19:02.493Z,17.70
2018-11-21T12:20:02.465Z,13.80
2018-11-21T12:21:02.436Z,18.70
2018-11-21T12:22:02.418Z,16.30
2018-11-21T12:23:02.386Z,16.10
2018-11-21T12:24:02.361Z,15.40
2018-11-21T12:25:02.335Z,17.70
2018-11-21T12:26:02.328Z,13.00
2018-11-21T12:27:02.295Z,17.50
2018-11-21T12:28:02.268Z,17.20
2018-11-21T12:29:02.243Z,13.70
2018-11-21T12:30:02.212Z,14.50
2018-11-21T12:31:02.187Z,18.20
2018-11-21T12:32:02.160Z,18.10
2018-11-21T12:33:02.139Z,17.50
2018-11-21T12:34:02.110Z,18.60
2018-11-21T12:35:02.100Z,15.40
2018-11-21T12:36:02.060Z,17.00
2018-11-21T12:37:02.036Z,17.40
2018-11-21T12:38:02.010Z,18.30
2018-11-21T12:39:02.009Z,15.00
2018-11-21T12:40:01.963Z,16.90
2018-11-21T12:41:01.939Z,14.50
2018-11-21T12:42:01.917Z,16.70
2018-11-21T12:43:01.937Z,17.10
2018-11-21T12:44:01.869Z,17.80
2018-11-21T12:45:01.844Z,17.50
2018-11-21T12:46:01.824Z,16.30
2018-11-21T12:47:01.791Z,18.50
2018-11-21T12:48:01.772Z,17.80
2018-11-21T12:49:01.745Z,17.50
2018-11-21T12:50:01.714Z,17.60
2018-11-21T12:51:01.684Z,17.70
2018-11-21T12:52:01.668Z,16.50